sensor_id;sensor_type;location;lat;lon;timestamp;temperature;humidity
21762;DHT22;11203;50.870;20.682;2023-04-23T00:01:31;7.70;99.90
21762;DHT22;11203;50.870;20.682;2023-04-23T00:03:59;7.70;99.90
21762;DHT22;11203;50.870;20.682;2023-04-23T00:06:27;7.70;99.90
21762;DHT22;11203;50.870;20.682;2023-04-23T00:08:56;7.70;99.90
21762;DHT22;11203;50.870;20.682;2023-04-23T00:11:25;7.80;99.90
21762;DHT22;11203;50.870;20.682;2023-04-23T00:13:52;7.60;99.90
21762;DHT22;11203;50.870;20.682;2023-04-23T00:16:19;7.60;99.90
21762;DHT22;11203;50.870;20.682;2023-04-23T00:18:46;7.60;99.90
21762;DHT22;11203;50.870;20.682;2023-04-23T00:21:13;7.60;99.90
21762;DHT22;11203;50.870;20.682;2023-04-23T00:23:39;7.60;99.90
21762;DHT22;11203;50.870;20.682;2023-04-23T00:26:06;7.70;99.90
21762;DHT22;11203;50.870;20.682;2023-04-23T00:28:32;7.70;99.90
21762;DHT22;11203;50.870;20.682;2023-04-23T00:30:58;7.80;99.90
21762;DHT22;11203;50.870;20.682;2023-04-23T00:33:24;7.80;99.90
21762;DHT22;11203;50.870;20.682;2023-04-23T00:35:50;7.80;99.90
21762;DHT22;11203;50.870;20.682;2023-04-23T00:38:17;7.80;99.90
21762;DHT22;11203;50.870;20.682;2023-04-23T00:40:46;7.70;99.90
21762;DHT22;11203;50.870;20.682;2023-04-23T00:43:12;7.60;99.90
21762;DHT22;11203;50.870;20.682;2023-04-23T00:45:40;7.50;99.90
21762;DHT22;11203;50.870;20.682;2023-04-23T00:48:06;7.50;99.90
21762;DHT22;11203;50.870;20.682;2023-04-23T00:50:33;7.50;99.90
21762;DHT22;11203;50.870;20.682;2023-04-23T00:52:59;7.40;99.90
21762;DHT22;11203;50.870;20.682;2023-04-23T00:55:25;7.40;99.90
21762;DHT22;11203;50.870;20.682;2023-04-23T00:57:51;7.30;99.90
21762;DHT22;11203;50.870;20.682;2023-04-23T01:00:19;7.30;99.90
21762;DHT22;11203;50.870;20.682;2023-04-23T01:02:46;7.30;99.90
21762;DHT22;11203;50.870;20.682;2023-04-23T01:05:15;7.30;99.90
21762;DHT22;11203;50.870;20.682;2023-04-23T01:07:44;7.30;99.90
21762;DHT22;11203;50.870;20.682;2023-04-23T01:10:11;7.30;99.90
21762;DHT22;11203;50.870;20.682;2023-04-23T01:12:38;7.30;99.90
21762;DHT22;11203;50.870;20.682;2023-04-23T01:15:05;7.20;99.90
21762;DHT22;11203;50.870;20.682;2023-04-23T01:17:33;7.30;99.90
21762;DHT22;11203;50.870;20.682;2023-04-23T01:19:59;7.30;99.90
21762;DHT22;11203;50.870;20.682;2023-04-23T01:22:25;7.30;99.90
21762;DHT22;11203;50.870;20.682;2023-04-23T01:24:51;7.30;99.90
21762;DHT22;11203;50.870;20.682;2023-04-23T01:27:18;7.30;99.90
21762;DHT22;11203;50.870;20.682;2023-04-23T01:29:46;7.40;99.90
21762;DHT22;11203;50.870;20.682;2023-04-23T01:32:12;7.30;99.90
21762;DHT22;11203;50.870;20.682;2023-04-23T01:34:40;7.20;99.90
21762;DHT22;11203;50.870;20.682;2023-04-23T01:37:06;7.20;99.90
21762;DHT22;11203;50.870;20.682;2023-04-23T01:39:32;7.10;99.90
21762;DHT22;11203;50.870;20.682;2023-04-23T01:41:58;7.10;99.90
21762;DHT22;11203;50.870;20.682;2023-04-23T01:44:26;7.10;99.90
21762;DHT22;11203;50.870;20.682;2023-04-23T01:46:52;7.10;99.90
21762;DHT22;11203;50.870;20.682;2023-04-23T01:49:18;7.10;99.90
21762;DHT22;11203;50.870;20.682;2023-04-23T01:51:44;7.10;99.90
21762;DHT22;11203;50.870;20.682;2023-04-23T01:54:10;7.10;99.90
21762;DHT22;11203;50.870;20.682;2023-04-23T01:56:36;7.00;99.90
21762;DHT22;11203;50.870;20.682;2023-04-23T01:59:03;6.90;99.90
21762;DHT22;11203;50.870;20.682;2023-04-23T02:01:43;6.90;99.90
21762;DHT22;11203;50.870;20.682;2023-04-23T02:04:11;6.90;99.90
21762;DHT22;11203;50.870;20.682;2023-04-23T02:06:39;6.90;99.90
21762;DHT22;11203;50.870;20.682;2023-04-23T02:09:07;6.90;99.90
21762;DHT22;11203;50.870;20.682;2023-04-23T02:11:33;7.00;99.90
21762;DHT22;11203;50.870;20.682;2023-04-23T02:14:00;6.90;99.90
21762;DHT22;11203;50.870;20.682;2023-04-23T02:16:26;6.90;99.90
21762;DHT22;11203;50.870;20.682;2023-04-23T02:18:53;6.90;99.90
21762;DHT22;11203;50.870;20.682;2023-04-23T02:21:21;6.90;99.90
21762;DHT22;11203;50.870;20.682;2023-04-23T02:23:49;6.90;99.90
21762;DHT22;11203;50.870;20.682;2023-04-23T02:26:15;6.80;99.90
21762;DHT22;11203;50.870;20.682;2023-04-23T02:28:42;6.80;99.90
21762;DHT22;11203;50.870;20.682;2023-04-23T02:31:08;6.80;99.90
21762;DHT22;11203;50.870;20.682;2023-04-23T02:33:34;6.80;99.90
21762;DHT22;11203;50.870;20.682;2023-04-23T02:36:00;6.90;99.90
21762;DHT22;11203;50.870;20.682;2023-04-23T02:38:26;6.80;99.90
21762;DHT22;11203;50.870;20.682;2023-04-23T02:40:55;6.90;99.90
21762;DHT22;11203;50.870;20.682;2023-04-23T02:43:21;6.80;99.90
21762;DHT22;11203;50.870;20.682;2023-04-23T02:45:47;6.80;99.90
21762;DHT22;11203;50.870;20.682;2023-04-23T02:48:13;6.90;99.90
21762;DHT22;11203;50.870;20.682;2023-04-23T02:50:39;6.80;99.90
21762;DHT22;11203;50.870;20.682;2023-04-23T02:53:06;6.80;99.90
21762;DHT22;11203;50.870;20.682;2023-04-23T02:55:32;6.80;99.90
21762;DHT22;11203;50.870;20.682;2023-04-23T02:57:59;6.80;99.90
21762;DHT22;11203;50.870;20.682;2023-04-23T03:00:25;6.80;99.90
21762;DHT22;11203;50.870;20.682;2023-04-23T03:02:52;6.50;99.90
21762;DHT22;11203;50.870;20.682;2023-04-23T03:05:18;6.40;99.90
21762;DHT22;11203;50.870;20.682;2023-04-23T03:07:44;6.10;99.90
21762;DHT22;11203;50.870;20.682;2023-04-23T03:10:10;6.20;99.90
21762;DHT22;11203;50.870;20.682;2023-04-23T03:12:36;6.30;99.90
21762;DHT22;11203;50.870;20.682;2023-04-23T03:15:03;6.50;99.90
21762;DHT22;11203;50.870;20.682;2023-04-23T03:17:30;6.50;99.90
21762;DHT22;11203;50.870;20.682;2023-04-23T03:19:55;6.50;99.90
21762;DHT22;11203;50.870;20.682;2023-04-23T03:22:22;6.50;99.90
21762;DHT22;11203;50.870;20.682;2023-04-23T03:24:48;6.50;99.90
21762;DHT22;11203;50.870;20.682;2023-04-23T03:27:14;6.40;99.90
21762;DHT22;11203;50.870;20.682;2023-04-23T03:29:40;6.40;99.90
21762;DHT22;11203;50.870;20.682;2023-04-23T03:32:06;6.30;99.90
21762;DHT22;11203;50.870;20.682;2023-04-23T03:34:32;6.20;99.90
21762;DHT22;11203;50.870;20.682;2023-04-23T03:36:58;6.20;99.90
21762;DHT22;11203;50.870;20.682;2023-04-23T03:39:24;6.00;99.90
21762;DHT22;11203;50.870;20.682;2023-04-23T03:41:50;5.80;99.90
21762;DHT22;11203;50.870;20.682;2023-04-23T03:44:16;5.70;99.90
21762;DHT22;11203;50.870;20.682;2023-04-23T03:46:42;5.50;99.90
21762;DHT22;11203;50.870;20.682;2023-04-23T03:49:08;5.50;99.90
21762;DHT22;11203;50.870;20.682;2023-04-23T03:51:34;5.60;99.90
21762;DHT22;11203;50.870;20.682;2023-04-23T03:54:00;5.70;99.90
21762;DHT22;11203;50.870;20.682;2023-04-23T03:56:26;5.70;99.90
21762;DHT22;11203;50.870;20.682;2023-04-23T03:58:52;5.70;99.90
21762;DHT22;11203;50.870;20.682;2023-04-23T04:01:19;5.90;99.90
21762;DHT22;11203;50.870;20.682;2023-04-23T04:03:44;6.00;99.90
21762;DHT22;11203;50.870;20.682;2023-04-23T04:06:11;6.00;99.90
21762;DHT22;11203;50.870;20.682;2023-04-23T04:08:37;6.30;99.90
21762;DHT22;11203;50.870;20.682;2023-04-23T04:11:03;6.40;99.90
21762;DHT22;11203;50.870;20.682;2023-04-23T04:13:29;6.00;99.90
21762;DHT22;11203;50.870;20.682;2023-04-23T04:15:55;5.80;99.90
21762;DHT22;11203;50.870;20.682;2023-04-23T04:18:21;5.60;99.90
21762;DHT22;11203;50.870;20.682;2023-04-23T04:20:47;5.60;99.90
21762;DHT22;11203;50.870;20.682;2023-04-23T04:23:13;5.60;99.90
21762;DHT22;11203;50.870;20.682;2023-04-23T04:25:39;5.60;99.90
21762;DHT22;11203;50.870;20.682;2023-04-23T04:28:06;5.70;99.90
21762;DHT22;11203;50.870;20.682;2023-04-23T04:30:34;5.70;99.90
21762;DHT22;11203;50.870;20.682;2023-04-23T04:33:00;6.00;99.90
21762;DHT22;11203;50.870;20.682;2023-04-23T04:35:26;6.30;99.90
21762;DHT22;11203;50.870;20.682;2023-04-23T04:37:52;6.60;99.90
21762;DHT22;11203;50.870;20.682;2023-04-23T04:40:19;6.80;99.90
21762;DHT22;11203;50.870;20.682;2023-04-23T04:42:45;7.00;99.90
21762;DHT22;11203;50.870;20.682;2023-04-23T04:45:12;7.10;99.90
21762;DHT22;11203;50.870;20.682;2023-04-23T04:47:38;7.30;99.90
21762;DHT22;11203;50.870;20.682;2023-04-23T04:50:04;7.40;99.90
21762;DHT22;11203;50.870;20.682;2023-04-23T04:52:31;7.50;99.90
21762;DHT22;11203;50.870;20.682;2023-04-23T04:54:57;7.70;99.90
21762;DHT22;11203;50.870;20.682;2023-04-23T04:57:26;7.70;99.90
21762;DHT22;11203;50.870;20.682;2023-04-23T04:59:52;7.80;99.90
21762;DHT22;11203;50.870;20.682;2023-04-23T05:02:18;7.90;99.90
21762;DHT22;11203;50.870;20.682;2023-04-23T05:04:46;8.10;99.90
21762;DHT22;11203;50.870;20.682;2023-04-23T05:07:13;8.30;99.90
21762;DHT22;11203;50.870;20.682;2023-04-23T05:09:40;8.40;99.90
21762;DHT22;11203;50.870;20.682;2023-04-23T05:12:06;8.50;99.90
21762;DHT22;11203;50.870;20.682;2023-04-23T05:14:32;8.70;99.90
21762;DHT22;11203;50.870;20.682;2023-04-23T05:16:58;8.80;99.90
21762;DHT22;11203;50.870;20.682;2023-04-23T05:19:24;8.90;99.90
21762;DHT22;11203;50.870;20.682;2023-04-23T05:21:50;9.20;99.90
21762;DHT22;11203;50.870;20.682;2023-04-23T05:24:17;9.30;99.90
21762;DHT22;11203;50.870;20.682;2023-04-23T05:26:42;9.50;99.90
21762;DHT22;11203;50.870;20.682;2023-04-23T05:29:09;9.60;99.90
21762;DHT22;11203;50.870;20.682;2023-04-23T05:31:35;9.60;99.90
21762;DHT22;11203;50.870;20.682;2023-04-23T05:34:01;9.80;99.90
21762;DHT22;11203;50.870;20.682;2023-04-23T05:36:27;10.00;99.90
21762;DHT22;11203;50.870;20.682;2023-04-23T05:38:53;10.10;99.90
21762;DHT22;11203;50.870;20.682;2023-04-23T05:41:19;10.20;99.90
21762;DHT22;11203;50.870;20.682;2023-04-23T05:43:46;10.40;99.90
21762;DHT22;11203;50.870;20.682;2023-04-23T05:46:12;10.60;99.90
21762;DHT22;11203;50.870;20.682;2023-04-23T05:48:38;10.70;99.90
21762;DHT22;11203;50.870;20.682;2023-04-23T05:51:04;10.80;99.90
21762;DHT22;11203;50.870;20.682;2023-04-23T05:53:30;10.90;99.90
21762;DHT22;11203;50.870;20.682;2023-04-23T05:55:56;11.10;99.90
21762;DHT22;11203;50.870;20.682;2023-04-23T05:58:22;11.20;99.90
21762;DHT22;11203;50.870;20.682;2023-04-23T06:00:48;11.40;99.90
21762;DHT22;11203;50.870;20.682;2023-04-23T06:03:15;11.50;99.90
21762;DHT22;11203;50.870;20.682;2023-04-23T06:05:40;11.60;99.90
21762;DHT22;11203;50.870;20.682;2023-04-23T06:08:08;11.70;99.90
21762;DHT22;11203;50.870;20.682;2023-04-23T06:10:34;11.80;99.90
21762;DHT22;11203;50.870;20.682;2023-04-23T06:13:00;11.90;99.90
21762;DHT22;11203;50.870;20.682;2023-04-23T06:15:26;12.10;99.90
21762;DHT22;11203;50.870;20.682;2023-04-23T06:17:52;12.10;99.90
21762;DHT22;11203;50.870;20.682;2023-04-23T06:20:19;12.30;99.90
21762;DHT22;11203;50.870;20.682;2023-04-23T06:22:45;12.40;99.90
21762;DHT22;11203;50.870;20.682;2023-04-23T06:25:11;12.30;99.90
21762;DHT22;11203;50.870;20.682;2023-04-23T06:27:37;12.50;99.90
21762;DHT22;11203;50.870;20.682;2023-04-23T06:30:03;12.60;99.90
21762;DHT22;11203;50.870;20.682;2023-04-23T06:32:30;12.60;99.90
21762;DHT22;11203;50.870;20.682;2023-04-23T06:34:56;12.80;99.90
21762;DHT22;11203;50.870;20.682;2023-04-23T06:37:22;12.90;99.90
21762;DHT22;11203;50.870;20.682;2023-04-23T06:39:50;13.00;99.90
21762;DHT22;11203;50.870;20.682;2023-04-23T06:42:17;13.10;99.90
21762;DHT22;11203;50.870;20.682;2023-04-23T06:44:43;13.30;99.90
21762;DHT22;11203;50.870;20.682;2023-04-23T06:47:11;13.30;99.90
21762;DHT22;11203;50.870;20.682;2023-04-23T06:49:38;13.40;99.90
21762;DHT22;11203;50.870;20.682;2023-04-23T06:52:05;13.60;99.90
21762;DHT22;11203;50.870;20.682;2023-04-23T06:54:31;13.60;99.90
21762;DHT22;11203;50.870;20.682;2023-04-23T06:56:57;13.60;99.90
21762;DHT22;11203;50.870;20.682;2023-04-23T06:59:23;13.70;99.90
21762;DHT22;11203;50.870;20.682;2023-04-23T07:01:50;13.80;99.90
21762;DHT22;11203;50.870;20.682;2023-04-23T07:04:16;13.90;99.90
21762;DHT22;11203;50.870;20.682;2023-04-23T07:06:42;14.10;99.90
21762;DHT22;11203;50.870;20.682;2023-04-23T07:09:08;14.10;99.90
21762;DHT22;11203;50.870;20.682;2023-04-23T07:11:34;14.20;99.90
21762;DHT22;11203;50.870;20.682;2023-04-23T07:14:02;14.20;99.90
21762;DHT22;11203;50.870;20.682;2023-04-23T07:16:28;14.40;99.90
21762;DHT22;11203;50.870;20.682;2023-04-23T07:18:58;14.60;99.90
21762;DHT22;11203;50.870;20.682;2023-04-23T07:21:27;14.70;99.90
21762;DHT22;11203;50.870;20.682;2023-04-23T07:23:57;14.70;99.90
21762;DHT22;11203;50.870;20.682;2023-04-23T07:26:32;14.80;99.90
21762;DHT22;11203;50.870;20.682;2023-04-23T07:28:58;15.00;99.90
21762;DHT22;11203;50.870;20.682;2023-04-23T07:31:26;15.00;99.90
21762;DHT22;11203;50.870;20.682;2023-04-23T07:33:54;15.10;99.90
21762;DHT22;11203;50.870;20.682;2023-04-23T07:36:21;15.10;99.90
21762;DHT22;11203;50.870;20.682;2023-04-23T07:38:47;15.20;99.90
21762;DHT22;11203;50.870;20.682;2023-04-23T07:41:13;15.30;99.90
21762;DHT22;11203;50.870;20.682;2023-04-23T07:43:40;15.40;99.90
21762;DHT22;11203;50.870;20.682;2023-04-23T07:46:07;15.60;99.90
21762;DHT22;11203;50.870;20.682;2023-04-23T07:48:33;15.70;99.90
21762;DHT22;11203;50.870;20.682;2023-04-23T07:51:00;15.80;99.90
21762;DHT22;11203;50.870;20.682;2023-04-23T07:53:26;15.80;99.90
21762;DHT22;11203;50.870;20.682;2023-04-23T07:55:56;15.90;99.90
21762;DHT22;11203;50.870;20.682;2023-04-23T07:58:23;15.90;99.90
21762;DHT22;11203;50.870;20.682;2023-04-23T08:00:50;16.30;99.90
21762;DHT22;11203;50.870;20.682;2023-04-23T08:03:17;16.50;99.90
21762;DHT22;11203;50.870;20.682;2023-04-23T08:05:43;16.60;99.90
21762;DHT22;11203;50.870;20.682;2023-04-23T08:08:12;16.70;99.90
21762;DHT22;11203;50.870;20.682;2023-04-23T08:10:39;16.70;99.90
21762;DHT22;11203;50.870;20.682;2023-04-23T08:13:05;16.80;99.90
21762;DHT22;11203;50.870;20.682;2023-04-23T08:15:31;16.90;99.90
21762;DHT22;11203;50.870;20.682;2023-04-23T08:17:57;17.00;99.90
21762;DHT22;11203;50.870;20.682;2023-04-23T08:20:24;16.90;99.90
21762;DHT22;11203;50.870;20.682;2023-04-23T08:22:50;17.10;99.90
21762;DHT22;11203;50.870;20.682;2023-04-23T08:25:19;17.00;99.10
21762;DHT22;11203;50.870;20.682;2023-04-23T08:27:45;17.40;99.90
21762;DHT22;11203;50.870;20.682;2023-04-23T08:30:12;17.50;97.80
21762;DHT22;11203;50.870;20.682;2023-04-23T08:32:38;17.50;98.90
21762;DHT22;11203;50.870;20.682;2023-04-23T08:35:08;17.40;98.30
21762;DHT22;11203;50.870;20.682;2023-04-23T08:37:34;17.40;97.30
21762;DHT22;11203;50.870;20.682;2023-04-23T08:40:01;17.50;96.60
21762;DHT22;11203;50.870;20.682;2023-04-23T08:45:16;17.60;90.20
21762;DHT22;11203;50.870;20.682;2023-04-23T08:47:43;17.60;92.10
21762;DHT22;11203;50.870;20.682;2023-04-23T08:50:12;17.70;90.50
21762;DHT22;11203;50.870;20.682;2023-04-23T08:52:48;17.90;92.80
21762;DHT22;11203;50.870;20.682;2023-04-23T08:55:15;17.80;91.60
21762;DHT22;11203;50.870;20.682;2023-04-23T08:57:44;17.90;88.50
21762;DHT22;11203;50.870;20.682;2023-04-23T09:00:12;18.00;80.90
21762;DHT22;11203;50.870;20.682;2023-04-23T09:02:43;18.00;84.60
21762;DHT22;11203;50.870;20.682;2023-04-23T09:05:15;18.00;80.50
21762;DHT22;11203;50.870;20.682;2023-04-23T09:07:41;18.10;80.90
21762;DHT22;11203;50.870;20.682;2023-04-23T09:10:09;18.30;80.50
21762;DHT22;11203;50.870;20.682;2023-04-23T09:12:39;18.20;77.70
21762;DHT22;11203;50.870;20.682;2023-04-23T09:15:07;18.20;76.90
21762;DHT22;11203;50.870;20.682;2023-04-23T09:17:38;18.30;70.80
21762;DHT22;11203;50.870;20.682;2023-04-23T09:20:06;18.50;68.40
21762;DHT22;11203;50.870;20.682;2023-04-23T09:22:50;18.60;65.70
21762;DHT22;11203;50.870;20.682;2023-04-23T09:25:22;18.50;63.80
21762;DHT22;11203;50.870;20.682;2023-04-23T09:27:50;18.70;70.00
21762;DHT22;11203;50.870;20.682;2023-04-23T09:30:17;18.70;66.50
21762;DHT22;11203;50.870;20.682;2023-04-23T09:32:44;19.00;66.70
21762;DHT22;11203;50.870;20.682;2023-04-23T09:35:13;18.90;64.30
21762;DHT22;11203;50.870;20.682;2023-04-23T09:37:42;18.90;62.90
21762;DHT22;11203;50.870;20.682;2023-04-23T09:40:17;18.80;62.60
21762;DHT22;11203;50.870;20.682;2023-04-23T09:42:49;19.10;62.90
21762;DHT22;11203;50.870;20.682;2023-04-23T09:45:19;19.20;63.50
21762;DHT22;11203;50.870;20.682;2023-04-23T09:47:56;19.20;60.00
21762;DHT22;11203;50.870;20.682;2023-04-23T09:50:36;19.30;58.50
21762;DHT22;11203;50.870;20.682;2023-04-23T09:53:05;19.20;59.40
21762;DHT22;11203;50.870;20.682;2023-04-23T09:55:34;19.30;58.90
21762;DHT22;11203;50.870;20.682;2023-04-23T09:58:11;19.40;58.40
21762;DHT22;11203;50.870;20.682;2023-04-23T10:00:38;19.50;58.50
21762;DHT22;11203;50.870;20.682;2023-04-23T10:03:05;19.60;58.60
